PAMD METAR and TAF weather

Enter ICAO airport designator
Station Type Date Time Source
PAMD METAR 2020/11/27 13:51 UTC NOAA

PAMD 271351Z AUTO 10037G44KT 6SM -RA BR BKN020 OVC036 05/03 A2935 RMK AO2 PK WND 10044/1350 SLP928 P0000 T00500028


Station Type Date Time Source
PAMD Decoded METAR 2020/11/27 13:51 UTC NOAA

Middleton Island, Middleton Island Airport, AK, United States (PAMD) 59-26N 146-18W 14M
Nov 27, 2020 - 08:51 AM EST / 2020.11.27 1351 UTC
Wind: from the E (100 degrees) at 43 MPH (37 KT) gusting to 51 MPH (44 KT):0
Visibility: 6 mile(s):0
Sky conditions: overcast
Weather: light rain; mist
Precipitation last hour: A trace
Temperature: 41.0 F (5.0 C)
Dew Point: 37.0 F (2.8 C)
Relative Humidity: 85%
Pressure (altimeter): 29.35 in. Hg (993 hPa)
ob: PAMD 271351Z AUTO 10037G44KT 6SM -RA BR BKN020 OVC036 05/03 A2935 RMK AO2 PK WND 10044/1350 SLP928 P0000 T00500028
cycle: 14

Station Type Date Time Source
PAMD TAF UTC NOAA

Error!

Example: see airport list